sensor_id;sensor_type;location;lat;lon;timestamp;temperature;humidity
32839;DHT22;19182;41.820;12.808;2023-04-01T00:01:07;11.90;99.90
32839;DHT22;19182;41.820;12.808;2023-04-01T00:03:33;11.90;99.90
32839;DHT22;19182;41.820;12.808;2023-04-01T00:06:01;11.90;99.90
32839;DHT22;19182;41.820;12.808;2023-04-01T00:08:27;11.90;99.90
32839;DHT22;19182;41.820;12.808;2023-04-01T00:10:55;11.90;99.90
32839;DHT22;19182;41.820;12.808;2023-04-01T00:13:26;11.80;99.90
32839;DHT22;19182;41.820;12.808;2023-04-01T00:15:53;11.80;99.90
32839;DHT22;19182;41.820;12.808;2023-04-01T00:18:19;11.80;99.90
32839;DHT22;19182;41.820;12.808;2023-04-01T00:20:47;11.80;99.90
32839;DHT22;19182;41.820;12.808;2023-04-01T00:23:14;11.80;99.90
32839;DHT22;19182;41.820;12.808;2023-04-01T00:25:40;11.80;99.90
32839;DHT22;19182;41.820;12.808;2023-04-01T00:28:06;11.80;99.90
32839;DHT22;19182;41.820;12.808;2023-04-01T00:30:33;11.80;99.90
32839;DHT22;19182;41.820;12.808;2023-04-01T00:32:59;11.80;99.90
32839;DHT22;19182;41.820;12.808;2023-04-01T00:35:25;11.90;99.90
32839;DHT22;19182;41.820;12.808;2023-04-01T00:37:55;11.90;99.90
32839;DHT22;19182;41.820;12.808;2023-04-01T00:40:31;11.70;99.90
32839;DHT22;19182;41.820;12.808;2023-04-01T00:42:57;11.80;99.90
32839;DHT22;19182;41.820;12.808;2023-04-01T00:45:31;11.80;99.90
32839;DHT22;19182;41.820;12.808;2023-04-01T00:47:59;11.80;99.90
32839;DHT22;19182;41.820;12.808;2023-04-01T00:50:28;11.80;99.90
32839;DHT22;19182;41.820;12.808;2023-04-01T00:52:55;11.80;99.90
32839;DHT22;19182;41.820;12.808;2023-04-01T00:55:23;11.80;99.90
32839;DHT22;19182;41.820;12.808;2023-04-01T00:57:54;11.80;99.90
32839;DHT22;19182;41.820;12.808;2023-04-01T01:00:22;11.90;99.90
32839;DHT22;19182;41.820;12.808;2023-04-01T01:02:51;11.90;99.90
32839;DHT22;19182;41.820;12.808;2023-04-01T01:05:18;11.80;99.90
32839;DHT22;19182;41.820;12.808;2023-04-01T01:10:40;11.90;99.90
32839;DHT22;19182;41.820;12.808;2023-04-01T01:13:30;12.00;99.90
32839;DHT22;19182;41.820;12.808;2023-04-01T01:16:21;11.90;99.90
32839;DHT22;19182;41.820;12.808;2023-04-01T01:18:59;11.90;99.90
32839;DHT22;19182;41.820;12.808;2023-04-01T01:27:54;12.00;99.90
32839;DHT22;19182;41.820;12.808;2023-04-01T01:30:43;12.00;99.90
32839;DHT22;19182;41.820;12.808;2023-04-01T01:35:49;12.10;99.90
32839;DHT22;19182;41.820;12.808;2023-04-01T01:38:20;12.10;99.90
32839;DHT22;19182;41.820;12.808;2023-04-01T01:40:48;12.00;99.90
32839;DHT22;19182;41.820;12.808;2023-04-01T01:43:21;12.00;99.90
32839;DHT22;19182;41.820;12.808;2023-04-01T01:45:53;12.00;99.90
32839;DHT22;19182;41.820;12.808;2023-04-01T01:48:21;12.10;99.90
32839;DHT22;19182;41.820;12.808;2023-04-01T01:50:49;12.10;99.90
32839;DHT22;19182;41.820;12.808;2023-04-01T01:53:21;12.10;99.90
32839;DHT22;19182;41.820;12.808;2023-04-01T01:55:47;12.10;99.90
32839;DHT22;19182;41.820;12.808;2023-04-01T01:58:24;12.10;99.90
32839;DHT22;19182;41.820;12.808;2023-04-01T02:00:59;12.10;99.90
32839;DHT22;19182;41.820;12.808;2023-04-01T02:03:36;12.00;99.90
32839;DHT22;19182;41.820;12.808;2023-04-01T02:06:06;12.00;99.90
32839;DHT22;19182;41.820;12.808;2023-04-01T02:11:10;11.90;99.90
32839;DHT22;19182;41.820;12.808;2023-04-01T02:13:54;11.90;99.90
32839;DHT22;19182;41.820;12.808;2023-04-01T02:16:31;11.80;99.90
32839;DHT22;19182;41.820;12.808;2023-04-01T02:19:01;11.80;99.90
32839;DHT22;19182;41.820;12.808;2023-04-01T02:21:31;11.80;99.90
32839;DHT22;19182;41.820;12.808;2023-04-01T02:24:00;11.80;99.90
32839;DHT22;19182;41.820;12.808;2023-04-01T02:26:28;11.70;99.90
32839;DHT22;19182;41.820;12.808;2023-04-01T02:28:54;11.60;99.90
32839;DHT22;19182;41.820;12.808;2023-04-01T02:31:23;11.70;99.90
32839;DHT22;19182;41.820;12.808;2023-04-01T02:33:49;11.60;99.90
32839;DHT22;19182;41.820;12.808;2023-04-01T02:36:16;11.60;99.90
32839;DHT22;19182;41.820;12.808;2023-04-01T02:38:45;11.60;99.90
32839;DHT22;19182;41.820;12.808;2023-04-01T02:41:12;11.50;99.90
32839;DHT22;19182;41.820;12.808;2023-04-01T02:43:38;11.50;99.90
32839;DHT22;19182;41.820;12.808;2023-04-01T02:46:04;11.40;99.90
32839;DHT22;19182;41.820;12.808;2023-04-01T02:48:29;11.40;99.90
32839;DHT22;19182;41.820;12.808;2023-04-01T02:50:56;11.40;99.90
32839;DHT22;19182;41.820;12.808;2023-04-01T02:53:24;11.40;99.90
32839;DHT22;19182;41.820;12.808;2023-04-01T02:55:50;11.40;99.90
32839;DHT22;19182;41.820;12.808;2023-04-01T02:58:18;11.50;99.90
32839;DHT22;19182;41.820;12.808;2023-04-01T03:00:44;11.50;99.90
32839;DHT22;19182;41.820;12.808;2023-04-01T03:03:10;11.50;99.90
32839;DHT22;19182;41.820;12.808;2023-04-01T03:05:37;11.50;99.90
32839;DHT22;19182;41.820;12.808;2023-04-01T03:08:04;11.50;99.90
32839;DHT22;19182;41.820;12.808;2023-04-01T03:10:29;11.40;99.90
32839;DHT22;19182;41.820;12.808;2023-04-01T03:12:56;11.50;99.90
32839;DHT22;19182;41.820;12.808;2023-04-01T03:15:22;11.40;99.90
32839;DHT22;19182;41.820;12.808;2023-04-01T03:17:49;11.50;99.90
32839;DHT22;19182;41.820;12.808;2023-04-01T03:20:15;11.60;99.90
32839;DHT22;19182;41.820;12.808;2023-04-01T03:22:41;11.50;99.90
32839;DHT22;19182;41.820;12.808;2023-04-01T03:25:07;11.40;99.90
32839;DHT22;19182;41.820;12.808;2023-04-01T03:27:34;11.50;99.90
32839;DHT22;19182;41.820;12.808;2023-04-01T03:30:02;11.40;99.90
32839;DHT22;19182;41.820;12.808;2023-04-01T03:32:28;11.50;99.90
32839;DHT22;19182;41.820;12.808;2023-04-01T03:34:55;11.40;99.90
32839;DHT22;19182;41.820;12.808;2023-04-01T03:37:20;11.30;99.90
32839;DHT22;19182;41.820;12.808;2023-04-01T03:39:46;11.30;99.90
32839;DHT22;19182;41.820;12.808;2023-04-01T03:42:12;11.20;99.90
32839;DHT22;19182;41.820;12.808;2023-04-01T03:44:37;11.20;99.90
32839;DHT22;19182;41.820;12.808;2023-04-01T03:47:04;11.10;99.90
32839;DHT22;19182;41.820;12.808;2023-04-01T03:49:30;11.00;99.90
32839;DHT22;19182;41.820;12.808;2023-04-01T03:51:57;11.00;99.90
32839;DHT22;19182;41.820;12.808;2023-04-01T03:54:24;11.00;99.90
32839;DHT22;19182;41.820;12.808;2023-04-01T03:56:51;10.80;99.90
32839;DHT22;19182;41.820;12.808;2023-04-01T03:59:17;10.80;99.90
32839;DHT22;19182;41.820;12.808;2023-04-01T04:01:42;10.70;99.90
32839;DHT22;19182;41.820;12.808;2023-04-01T04:04:11;10.70;99.90
32839;DHT22;19182;41.820;12.808;2023-04-01T04:06:38;10.70;99.90
32839;DHT22;19182;41.820;12.808;2023-04-01T04:09:04;10.60;99.90
32839;DHT22;19182;41.820;12.808;2023-04-01T04:11:31;10.50;99.90
32839;DHT22;19182;41.820;12.808;2023-04-01T04:13:57;10.50;99.90
32839;DHT22;19182;41.820;12.808;2023-04-01T04:16:24;10.50;99.90
32839;DHT22;19182;41.820;12.808;2023-04-01T04:18:49;10.40;99.90
32839;DHT22;19182;41.820;12.808;2023-04-01T04:21:18;10.30;99.90
32839;DHT22;19182;41.820;12.808;2023-04-01T04:23:44;10.20;99.90
32839;DHT22;19182;41.820;12.808;2023-04-01T04:26:12;10.30;99.90
32839;DHT22;19182;41.820;12.808;2023-04-01T04:28:38;10.40;99.90
32839;DHT22;19182;41.820;12.808;2023-04-01T04:31:06;10.30;99.90
32839;DHT22;19182;41.820;12.808;2023-04-01T04:33:32;10.40;99.90
32839;DHT22;19182;41.820;12.808;2023-04-01T04:35:58;10.40;99.90
32839;DHT22;19182;41.820;12.808;2023-04-01T04:38:25;10.50;99.90
32839;DHT22;19182;41.820;12.808;2023-04-01T04:40:52;10.60;99.90
32839;DHT22;19182;41.820;12.808;2023-04-01T04:43:19;10.70;99.90
32839;DHT22;19182;41.820;12.808;2023-04-01T04:45:45;10.80;99.90
32839;DHT22;19182;41.820;12.808;2023-04-01T04:48:13;10.80;99.90
32839;DHT22;19182;41.820;12.808;2023-04-01T04:50:42;10.80;99.90
32839;DHT22;19182;41.820;12.808;2023-04-01T04:53:12;10.80;99.90
32839;DHT22;19182;41.820;12.808;2023-04-01T04:55:42;10.80;99.90
32839;DHT22;19182;41.820;12.808;2023-04-01T04:58:09;10.90;99.90
32839;DHT22;19182;41.820;12.808;2023-04-01T05:00:35;10.90;99.90
32839;DHT22;19182;41.820;12.808;2023-04-01T05:03:01;10.90;99.90
32839;DHT22;19182;41.820;12.808;2023-04-01T05:05:28;10.90;99.90
32839;DHT22;19182;41.820;12.808;2023-04-01T05:07:54;10.90;99.90
32839;DHT22;19182;41.820;12.808;2023-04-01T05:10:19;11.00;99.90
32839;DHT22;19182;41.820;12.808;2023-04-01T05:12:46;11.00;99.90
32839;DHT22;19182;41.820;12.808;2023-04-01T05:15:13;11.00;99.90
32839;DHT22;19182;41.820;12.808;2023-04-01T05:17:39;10.80;99.90
32839;DHT22;19182;41.820;12.808;2023-04-01T05:20:05;10.80;99.90
32839;DHT22;19182;41.820;12.808;2023-04-01T05:22:31;10.80;99.90
32839;DHT22;19182;41.820;12.808;2023-04-01T05:24:57;10.70;99.90
32839;DHT22;19182;41.820;12.808;2023-04-01T05:27:23;10.70;99.90
32839;DHT22;19182;41.820;12.808;2023-04-01T05:29:48;10.70;99.90
32839;DHT22;19182;41.820;12.808;2023-04-01T05:32:15;10.70;99.90
32839;DHT22;19182;41.820;12.808;2023-04-01T05:34:42;10.60;99.90
32839;DHT22;19182;41.820;12.808;2023-04-01T05:37:09;10.60;99.90
32839;DHT22;19182;41.820;12.808;2023-04-01T05:39:39;10.60;99.90
32839;DHT22;19182;41.820;12.808;2023-04-01T05:42:06;10.60;99.90
32839;DHT22;19182;41.820;12.808;2023-04-01T05:44:33;10.60;99.90
32839;DHT22;19182;41.820;12.808;2023-04-01T05:47:00;10.60;99.90
32839;DHT22;19182;41.820;12.808;2023-04-01T05:49:26;10.70;99.90
32839;DHT22;19182;41.820;12.808;2023-04-01T05:51:53;10.80;99.90
32839;DHT22;19182;41.820;12.808;2023-04-01T05:54:19;10.90;99.90
32839;DHT22;19182;41.820;12.808;2023-04-01T05:56:45;10.90;99.90
32839;DHT22;19182;41.820;12.808;2023-04-01T05:59:12;11.00;99.90
32839;DHT22;19182;41.820;12.808;2023-04-01T06:01:38;11.10;99.90
32839;DHT22;19182;41.820;12.808;2023-04-01T06:04:04;11.30;99.90
32839;DHT22;19182;41.820;12.808;2023-04-01T06:06:31;11.30;99.90
32839;DHT22;19182;41.820;12.808;2023-04-01T06:09:06;11.50;99.90
32839;DHT22;19182;41.820;12.808;2023-04-01T06:12:17;11.60;99.90
32839;DHT22;19182;41.820;12.808;2023-04-01T06:18:15;11.90;99.90
32839;DHT22;19182;41.820;12.808;2023-04-01T06:21:17;12.00;99.90
32839;DHT22;19182;41.820;12.808;2023-04-01T06:26:58;12.40;99.90
32839;DHT22;19182;41.820;12.808;2023-04-01T06:29:46;12.50;99.90
32839;DHT22;19182;41.820;12.808;2023-04-01T06:36:08;12.90;99.90
32839;DHT22;19182;41.820;12.808;2023-04-01T06:43:50;13.70;99.90
32839;DHT22;19182;41.820;12.808;2023-04-01T06:46:45;14.00;99.90
32839;DHT22;19182;41.820;12.808;2023-04-01T06:52:02;15.90;99.90
32839;DHT22;19182;41.820;12.808;2023-04-01T06:54:40;17.40;99.90
32839;DHT22;19182;41.820;12.808;2023-04-01T06:59:51;20.30;99.90
32839;DHT22;19182;41.820;12.808;2023-04-01T07:02:32;21.50;99.90
32839;DHT22;19182;41.820;12.808;2023-04-01T07:05:00;21.90;99.90
32839;DHT22;19182;41.820;12.808;2023-04-01T07:10:04;23.10;99.90
32839;DHT22;19182;41.820;12.808;2023-04-01T07:12:46;23.90;99.90
32839;DHT22;19182;41.820;12.808;2023-04-01T07:18:32;24.90;99.90
32839;DHT22;19182;41.820;12.808;2023-04-01T07:21:01;24.80;99.90
32839;DHT22;19182;41.820;12.808;2023-04-01T07:23:39;25.20;99.10
32839;DHT22;19182;41.820;12.808;2023-04-01T07:26:22;25.50;98.30
32839;DHT22;19182;41.820;12.808;2023-04-01T07:28:51;25.00;96.70
32839;DHT22;19182;41.820;12.808;2023-04-01T07:36:47;22.90;99.90
32839;DHT22;19182;41.820;12.808;2023-04-01T07:42:11;21.50;99.90
32839;DHT22;19182;41.820;12.808;2023-04-01T07:50:34;21.20;99.90
32839;DHT22;19182;41.820;12.808;2023-04-01T08:01:31;21.60;99.90
32839;DHT22;19182;41.820;12.808;2023-04-01T08:04:17;21.80;99.90
32839;DHT22;19182;41.820;12.808;2023-04-01T08:26:43;20.30;99.90
32839;DHT22;19182;41.820;12.808;2023-04-01T08:29:19;20.10;99.90
32839;DHT22;19182;41.820;12.808;2023-04-01T08:32:00;20.20;99.90
32839;DHT22;19182;41.820;12.808;2023-04-01T08:34:37;20.30;99.90
32839;DHT22;19182;41.820;12.808;2023-04-01T08:37:28;20.20;99.90
32839;DHT22;19182;41.820;12.808;2023-04-01T08:40:11;20.20;99.90
32839;DHT22;19182;41.820;12.808;2023-04-01T08:57:11;20.90;99.90
32839;DHT22;19182;41.820;12.808;2023-04-01T09:14:38;20.30;99.90
32839;DHT22;19182;41.820;12.808;2023-04-01T09:17:28;20.40;99.90
32839;DHT22;19182;41.820;12.808;2023-04-01T09:28:25;20.70;99.90
32839;DHT22;19182;41.820;12.808;2023-04-01T09:31:21;21.30;99.90
32839;DHT22;19182;41.820;12.808;2023-04-01T09:37:19;22.50;99.90
32839;DHT22;19182;41.820;12.808;2023-04-01T09:45:41;22.10;99.90
32839;DHT22;19182;41.820;12.808;2023-04-01T09:48:56;21.90;99.90
32839;DHT22;19182;41.820;12.808;2023-04-01T09:54:02;21.40;99.90
32839;DHT22;19182;41.820;12.808;2023-04-01T10:11:09;22.10;99.90
32839;DHT22;19182;41.820;12.808;2023-04-01T10:19:56;22.80;99.90
32839;DHT22;19182;41.820;12.808;2023-04-01T10:26:16;23.60;98.50
32839;DHT22;19182;41.820;12.808;2023-04-01T10:37:56;22.90;98.30
32839;DHT22;19182;41.820;12.808;2023-04-01T11:30:53;24.50;93.30
32839;DHT22;19182;41.820;12.808;2023-04-01T11:33:38;24.70;93.00
32839;DHT22;19182;41.820;12.808;2023-04-01T11:39:20;24.70;93.50
32839;DHT22;19182;41.820;12.808;2023-04-01T11:44:30;24.40;94.00
32839;DHT22;19182;41.820;12.808;2023-04-01T11:47:32;24.50;94.00
32839;DHT22;19182;41.820;12.808;2023-04-01T11:53:01;24.90;93.40
32839;DHT22;19182;41.820;12.808;2023-04-01T11:58:43;24.90;93.40
32839;DHT22;19182;41.820;12.808;2023-04-01T12:25:03;24.10;94.30
32839;DHT22;19182;41.820;12.808;2023-04-01T12:27:41;24.10;94.90
32839;DHT22;19182;41.820;12.808;2023-04-01T12:33:40;23.20;96.50
32839;DHT22;19182;41.820;12.808;2023-04-01T12:36:14;23.30;96.80
32839;DHT22;19182;41.820;12.808;2023-04-01T12:41:46;23.50;97.40
32839;DHT22;19182;41.820;12.808;2023-04-01T12:47:23;23.40;98.00
32839;DHT22;19182;41.820;12.808;2023-04-01T12:55:44;23.10;97.60
32839;DHT22;19182;41.820;12.808;2023-04-01T12:58:37;23.00;97.20
32839;DHT22;19182;41.820;12.808;2023-04-01T13:01:47;23.20;97.30
32839;DHT22;19182;41.820;12.808;2023-04-01T13:04:33;23.20;98.20
32839;DHT22;19182;41.820;12.808;2023-04-01T13:18:24;22.50;97.50
32839;DHT22;19182;41.820;12.808;2023-04-01T13:26:56;22.70;97.00
32839;DHT22;19182;41.820;12.808;2023-04-01T13:29:33;22.10;96.70
32839;DHT22;19182;41.820;12.808;2023-04-01T13:32:19;22.10;95.40
32839;DHT22;19182;41.820;12.808;2023-04-01T13:43:24;21.70;96.60
32839;DHT22;19182;41.820;12.808;2023-04-01T13:49:00;21.50;97.10
32839;DHT22;19182;41.820;12.808;2023-04-01T13:57:37;20.90;98.30
32839;DHT22;19182;41.820;12.808;2023-04-01T14:11:53;20.40;99.50
32839;DHT22;19182;41.820;12.808;2023-04-01T14:20:47;20.10;98.70
32839;DHT22;19182;41.820;12.808;2023-04-01T14:34:53;19.70;98.40
32839;DHT22;19182;41.820;12.808;2023-04-01T14:37:55;19.60;98.40
32839;DHT22;19182;41.820;12.808;2023-04-01T14:40:27;19.60;99.60
32839;DHT22;19182;41.820;12.808;2023-04-01T14:43:03;19.60;99.90
32839;DHT22;19182;41.820;12.808;2023-04-01T14:50:51;19.50;98.80
32839;DHT22;19182;41.820;12.808;2023-04-01T14:56:00;19.10;99.80
32839;DHT22;19182;41.820;12.808;2023-04-01T14:58:45;19.00;99.90
32839;DHT22;19182;41.820;12.808;2023-04-01T15:01:40;19.00;99.90
32839;DHT22;19182;41.820;12.808;2023-04-01T15:04:43;19.20;99.90
32839;DHT22;19182;41.820;12.808;2023-04-01T15:07:48;19.20;99.90
32839;DHT22;19182;41.820;12.808;2023-04-01T15:16:27;19.10;99.90
32839;DHT22;19182;41.820;12.808;2023-04-01T15:35:52;18.50;99.90
32839;DHT22;19182;41.820;12.808;2023-04-01T15:38:50;18.50;99.90
32839;DHT22;19182;41.820;12.808;2023-04-01T15:41:37;18.20;99.90
32839;DHT22;19182;41.820;12.808;2023-04-01T15:44:41;18.10;99.50
32839;DHT22;19182;41.820;12.808;2023-04-01T16:01:32;17.60;99.90
32839;DHT22;19182;41.820;12.808;2023-04-01T16:06:56;17.50;99.90
32839;DHT22;19182;41.820;12.808;2023-04-01T16:14:44;17.40;99.90
32839;DHT22;19182;41.820;12.808;2023-04-01T16:20:24;17.30;99.90
32839;DHT22;19182;41.820;12.808;2023-04-01T16:25:57;17.20;99.90
32839;DHT22;19182;41.820;12.808;2023-04-01T16:32:03;17.20;99.90
32839;DHT22;19182;41.820;12.808;2023-04-01T16:36:53;17.10;99.90
32839;DHT22;19182;41.820;12.808;2023-04-01T16:47:56;16.90;99.90
32839;DHT22;19182;41.820;12.808;2023-04-01T16:50:23;17.00;99.90
32839;DHT22;19182;41.820;12.808;2023-04-01T16:53:09;16.90;99.90
32839;DHT22;19182;41.820;12.808;2023-04-01T16:58:54;16.80;99.90
32839;DHT22;19182;41.820;12.808;2023-04-01T17:01:30;16.70;99.90
32839;DHT22;19182;41.820;12.808;2023-04-01T17:04:08;16.30;99.90
32839;DHT22;19182;41.820;12.808;2023-04-01T17:07:11;16.00;99.90
32839;DHT22;19182;41.820;12.808;2023-04-01T17:12:52;15.80;99.90
32839;DHT22;19182;41.820;12.808;2023-04-01T17:20:58;15.60;99.90
32839;DHT22;19182;41.820;12.808;2023-04-01T17:23:36;15.50;99.90
32839;DHT22;19182;41.820;12.808;2023-04-01T17:34:30;15.20;99.90
32839;DHT22;19182;41.820;12.808;2023-04-01T17:50:30;14.70;99.90
32839;DHT22;19182;41.820;12.808;2023-04-01T17:53:28;14.50;99.90
32839;DHT22;19182;41.820;12.808;2023-04-01T17:58:50;14.20;99.90
32839;DHT22;19182;41.820;12.808;2023-04-01T18:10:01;14.20;99.90
32839;DHT22;19182;41.820;12.808;2023-04-01T18:20:58;13.60;99.90
32839;DHT22;19182;41.820;12.808;2023-04-01T18:26:24;13.50;99.90
32839;DHT22;19182;41.820;12.808;2023-04-01T18:28:59;13.30;99.90
32839;DHT22;19182;41.820;12.808;2023-04-01T18:31:42;13.30;99.90
32839;DHT22;19182;41.820;12.808;2023-04-01T18:34:30;13.10;99.90
32839;DHT22;19182;41.820;12.808;2023-04-01T18:39:51;13.40;99.90
32839;DHT22;19182;41.820;12.808;2023-04-01T18:42:55;13.20;99.90
32839;DHT22;19182;41.820;12.808;2023-04-01T18:45:51;12.80;99.90
32839;DHT22;19182;41.820;12.808;2023-04-01T18:51:39;12.70;99.90
32839;DHT22;19182;41.820;12.808;2023-04-01T18:54:29;12.60;99.90
32839;DHT22;19182;41.820;12.808;2023-04-01T18:57:02;12.40;99.90
32839;DHT22;19182;41.820;12.808;2023-04-01T18:59:53;12.50;99.90
32839;DHT22;19182;41.820;12.808;2023-04-01T19:05:20;12.00;99.90
32839;DHT22;19182;41.820;12.808;2023-04-01T19:07:53;11.60;99.90
32839;DHT22;19182;41.820;12.808;2023-04-01T19:15:38;11.50;99.90
32839;DHT22;19182;41.820;12.808;2023-04-01T19:20:52;11.10;99.90
32839;DHT22;19182;41.820;12.808;2023-04-01T19:23:35;11.10;99.90
32839;DHT22;19182;41.820;12.808;2023-04-01T19:26:11;11.20;99.90
32839;DHT22;19182;41.820;12.808;2023-04-01T19:31:39;8.80;99.90
32839;DHT22;19182;41.820;12.808;2023-04-01T19:56:23;10.20;99.90
32839;DHT22;19182;41.820;12.808;2023-04-01T20:12:35;9.60;99.90
32839;DHT22;19182;41.820;12.808;2023-04-01T20:15:55;9.50;99.90
32839;DHT22;19182;41.820;12.808;2023-04-01T20:18:17;9.30;99.90
32839;DHT22;19182;41.820;12.808;2023-04-01T20:21:24;9.20;99.90
32839;DHT22;19182;41.820;12.808;2023-04-01T20:24:02;9.20;99.90
32839;DHT22;19182;41.820;12.808;2023-04-01T20:26:38;9.30;99.90
32839;DHT22;19182;41.820;12.808;2023-04-01T20:31:44;9.30;99.90
32839;DHT22;19182;41.820;12.808;2023-04-01T20:34:31;9.10;99.90
32839;DHT22;19182;41.820;12.808;2023-04-01T20:43:16;9.10;99.90
32839;DHT22;19182;41.820;12.808;2023-04-01T20:48:51;9.10;99.90
32839;DHT22;19182;41.820;12.808;2023-04-01T20:51:25;9.30;99.90
32839;DHT22;19182;41.820;12.808;2023-04-01T21:05:11;8.70;99.90
32839;DHT22;19182;41.820;12.808;2023-04-01T21:07:55;8.80;99.90
32839;DHT22;19182;41.820;12.808;2023-04-01T21:10:56;8.70;99.90
32839;DHT22;19182;41.820;12.808;2023-04-01T21:13:41;8.50;99.90
32839;DHT22;19182;41.820;12.808;2023-04-01T21:16:32;8.30;99.90
32839;DHT22;19182;41.820;12.808;2023-04-01T21:19:09;8.40;99.90
32839;DHT22;19182;41.820;12.808;2023-04-01T21:24:49;9.70;99.90
32839;DHT22;19182;41.820;12.808;2023-04-01T21:28:09;8.60;99.90
32839;DHT22;19182;41.820;12.808;2023-04-01T21:30:19;8.70;99.90
32839;DHT22;19182;41.820;12.808;2023-04-01T21:39:47;8.40;99.90
32839;DHT22;19182;41.820;12.808;2023-04-01T21:43:09;8.50;99.90
32839;DHT22;19182;41.820;12.808;2023-04-01T21:50:54;8.60;99.90
32839;DHT22;19182;41.820;12.808;2023-04-01T21:54:21;8.50;99.90
32839;DHT22;19182;41.820;12.808;2023-04-01T22:00:28;8.30;99.90
32839;DHT22;19182;41.820;12.808;2023-04-01T22:05:30;8.30;99.90
32839;DHT22;19182;41.820;12.808;2023-04-01T22:10:59;8.20;99.90
32839;DHT22;19182;41.820;12.808;2023-04-01T22:19:39;8.00;99.90
32839;DHT22;19182;41.820;12.808;2023-04-01T22:27:44;7.90;99.90
32839;DHT22;19182;41.820;12.808;2023-04-01T22:30:32;7.70;99.90
32839;DHT22;19182;41.820;12.808;2023-04-01T22:33:07;7.70;99.90
32839;DHT22;19182;41.820;12.808;2023-04-01T22:36:11;7.70;99.90
32839;DHT22;19182;41.820;12.808;2023-04-01T22:39:35;7.70;99.90
32839;DHT22;19182;41.820;12.808;2023-04-01T22:42:45;7.70;99.90
32839;DHT22;19182;41.820;12.808;2023-04-01T22:45:22;7.60;99.90
32839;DHT22;19182;41.820;12.808;2023-04-01T22:56:41;7.50;99.90
32839;DHT22;19182;41.820;12.808;2023-04-01T22:59:19;7.30;99.90
32839;DHT22;19182;41.820;12.808;2023-04-01T23:02:03;7.30;99.90
32839;DHT22;19182;41.820;12.808;2023-04-01T23:04:37;7.30;99.90
32839;DHT22;19182;41.820;12.808;2023-04-01T23:07:20;7.20;99.90
32839;DHT22;19182;41.820;12.808;2023-04-01T23:09:50;7.10;99.90
32839;DHT22;19182;41.820;12.808;2023-04-01T23:12:19;7.10;99.90
32839;DHT22;19182;41.820;12.808;2023-04-01T23:14:50;7.10;99.90
32839;DHT22;19182;41.820;12.808;2023-04-01T23:23:57;7.10;99.90
32839;DHT22;19182;41.820;12.808;2023-04-01T23:28:53;7.30;99.90
32839;DHT22;19182;41.820;12.808;2023-04-01T23:31:39;7.20;99.90
32839;DHT22;19182;41.820;12.808;2023-04-01T23:36:44;7.10;99.90
32839;DHT22;19182;41.820;12.808;2023-04-01T23:39:33;7.00;99.90
32839;DHT22;19182;41.820;12.808;2023-04-01T23:44:30;6.90;99.90
32839;DHT22;19182;41.820;12.808;2023-04-01T23:46:57;6.80;99.90
32839;DHT22;19182;41.820;12.808;2023-04-01T23:49:28;6.70;99.90
32839;DHT22;19182;41.820;12.808;2023-04-01T23:51:59;6.60;99.90
32839;DHT22;19182;41.820;12.808;2023-04-01T23:54:33;6.70;99.90
32839;DHT22;19182;41.820;12.808;2023-04-01T23:57:04;6.70;99.90
32839;DHT22;19182;41.820;12.808;2023-04-01T23:59:34;6.70;99.90
